Time;durP1;ratioP1;P1;durP2;ratioP2;P2;SDS_P1;SDS_P2;PMS_P1;PMS_P2;Temp;Humidity;BMP_temperature;BMP_pressure;BME280_temperature;BME280_humidity;BME280_pressure;Samples;Min_cycle;Max_cycle;Signal;HPM_P1;HPM_P2
2023/12/07 00:00:33;;;;;;;3.63;2.67;;;20.00;64.30;;;;;;5053549;28;20064;-25
2023/12/07 00:03:00;;;;;;;3.42;2.60;;;19.70;60.70;;;;;;5035798;28;20052;-26
2023/12/07 00:05:27;;;;;;;3.30;2.38;;;20.00;63.90;;;;;;5053296;28;20077;-26
2023/12/07 00:07:54;;;;;;;2.55;2.20;;;;;;;;;;5054029;28;20053;-30
2023/12/07 00:10:22;;;;;;;2.72;2.35;;;20.20;47.40;;;;;;5053397;28;20102;-26
2023/12/07 00:12:49;;;;;;;3.33;2.35;;;19.50;63.60;;;;;;5053674;28;20049;-25
2023/12/07 00:15:16;;;;;;;2.70;2.30;;;;;;;;;;5053626;28;20056;-29
2023/12/07 00:17:43;;;;;;;2.97;2.22;;;19.70;63.60;;;;;;5053729;28;20049;-26
2023/12/07 00:20:11;;;;;;;3.30;2.50;;;19.90;42.90;;;;;;5053248;28;20045;-29
2023/12/07 00:22:37;;;;;;;3.42;2.47;;;20.10;64.10;;;;;;5053525;28;20095;-27
2023/12/07 00:25:06;;;;;;;3.40;2.65;;;19.50;51.60;;;;;;5053139;28;20049;-28
2023/12/07 00:27:34;;;;;;;2.83;2.40;;;19.80;43.40;;;;;;5049847;28;20045;-27
2023/12/07 00:30:01;;;;;;;3.65;2.47;;;19.70;64.60;;;;;;5033449;28;20054;-26
2023/12/07 00:32:28;;;;;;;3.95;2.40;;;;;;;;;;5033389;28;20107;-27
2023/12/07 00:34:55;;;;;;;3.03;2.38;;;19.90;63.80;;;;;;5033241;28;20045;-27
2023/12/07 00:37:22;;;;;;;3.08;2.10;;;19.50;64.50;;;;;;5033519;28;20077;-26
2023/12/07 00:39:49;;;;;;;2.90;2.38;;;;;;;;;;5033068;28;20045;-26
2023/12/07 00:42:16;;;;;;;2.85;2.20;;;18.80;64.30;;;;;;5033092;28;20049;-27
2023/12/07 00:44:44;;;;;;;3.38;2.38;;;19.50;44.80;;;;;;5033175;28;20119;-29
2023/12/07 00:47:11;;;;;;;3.15;2.40;;;18.40;51.80;;;;;;5032932;28;20076;-32
2023/12/07 00:49:39;;;;;;;3.45;2.45;;;19.30;65.20;;;;;;5032817;28;20520;-32
2023/12/07 00:52:07;;;;;;;3.22;2.38;;;;;;;;;;5032471;28;20057;-31
2023/12/07 00:54:33;;;;;;;2.80;2.25;;;19.40;56.80;;;;;;5032904;28;20123;-30
2023/12/07 00:57:00;;;;;;;2.80;2.38;;;18.70;64.80;;;;;;5032890;28;20060;-31
2023/12/07 00:59:33;;;;;;;3.80;2.60;;;;;;;;;;5032709;28;20171;-29
2023/12/07 01:02:02;;;;;;;3.28;2.10;;;19.10;65.40;;;;;;5032632;28;20053;-33
2023/12/07 01:04:29;;;;;;;2.33;2.10;;;19.50;65.30;;;;;;5032651;28;20084;-34
2023/12/07 01:06:55;;;;;;;2.75;2.30;;;19.20;47.20;;;;;;5032742;28;20053;-29
2023/12/07 01:09:22;;;;;;;3.28;2.40;;;19.30;65.30;;;;;;5032303;28;20053;-34
2023/12/07 01:11:49;;;;;;;3.20;2.03;;;18.10;64.70;;;;;;5032616;28;20057;-32
2023/12/07 01:14:16;;;;;;;2.63;2.13;;;;;;;;;;5032411;28;20053;-29
2023/12/07 01:16:43;;;;;;;3.05;2.40;;;19.40;65.50;;;;;;5032535;28;20064;-34
2023/12/07 01:19:14;;;;;;;2.92;2.33;;;18.50;62.00;;;;;;5032218;28;20108;-31
2023/12/07 01:21:40;;;;;;;2.65;2.30;;;19.80;66.20;;;;;;5032318;28;20410;-32
2023/12/07 01:24:07;;;;;;;2.38;2.08;;;19.40;65.70;;;;;;5032674;28;20054;-32
2023/12/07 01:26:34;;;;;;;2.97;2.10;;;18.20;59.70;;;;;;5032346;28;20057;-32
2023/12/07 01:29:02;;;;;;;2.95;2.20;;;19.30;66.10;;;;;;5032029;28;20088;-32
2023/12/07 01:31:29;;;;;;;3.35;2.30;;;18.90;65.80;;;;;;5032220;28;20137;-32
2023/12/07 01:33:56;;;;;;;2.65;2.30;;;19.20;66.00;;;;;;5046523;28;20554;-33
2023/12/07 01:36:24;;;;;;;2.55;2.10;;;20.20;61.10;;;;;;5051432;28;20490;-31
2023/12/07 01:38:51;;;;;;;2.70;1.92;;;;;;;;;;5051997;28;20073;-32
2023/12/07 01:41:19;;;;;;;3.58;2.20;;;;;;;;;;5051882;28;20419;-29
2023/12/07 01:43:46;;;;;;;3.35;2.38;;;19.50;65.90;;;;;;5051764;28;20084;-31
2023/12/07 01:46:13;;;;;;;2.45;2.00;;;;;;;;;;5051980;28;20110;-27
2023/12/07 01:48:40;;;;;;;2.95;2.10;;;19.10;65.80;;;;;;5051792;28;20053;-25
2023/12/07 01:51:07;;;;;;;2.17;1.98;;;18.90;62.40;;;;;;5051700;28;20045;-26
2023/12/07 01:53:35;;;;;;;2.58;2.10;;;19.30;44.50;;;;;;5051797;28;20049;-26
2023/12/07 01:56:03;;;;;;;2.70;2.10;;;19.10;65.80;;;;;;5051970;28;20049;-26
2023/12/07 01:58:30;;;;;;;2.47;2.08;;;18.40;65.00;;;;;;5051438;28;20053;-33
2023/12/07 02:00:57;;;;;;;2.45;2.00;;;;;;;;;;5051803;28;20189;-28
2023/12/07 02:03:24;;;;;;;2.50;2.15;;;20.50;49.30;;;;;;5051368;28;20053;-32
2023/12/07 02:05:51;;;;;;;2.92;2.20;;;;;;;;;;5051876;28;20059;-30
2023/12/07 02:08:18;;;;;;;2.40;1.95;;;19.80;65.60;;;;;;5051571;28;20056;-26
2023/12/07 02:10:46;;;;;;;3.08;2.22;;;18.80;65.10;;;;;;5051523;28;20053;-26
2023/12/07 02:13:13;;;;;;;3.83;2.10;;;;;;;;;;5051673;28;20052;-28
2023/12/07 02:15:40;;;;;;;2.00;1.70;;;18.90;65.50;;;;;;5051347;28;20505;-27
2023/12/07 02:18:16;;;;;;;2.40;2.00;;;19.60;65.40;;;;;;5051519;28;20098;-27
2023/12/07 02:20:47;;;;;;;2.92;2.08;;;19.20;65.30;;;;;;5051028;28;20563;-26
2023/12/07 02:23:15;;;;;;;3.00;1.98;;;19.00;65.10;;;;;;5051602;28;20158;-27
2023/12/07 02:25:49;;;;;;;2.15;1.80;;;19.50;44.30;;;;;;5051469;28;20049;-27
2023/12/07 02:28:17;;;;;;;2.75;1.98;;;19.50;44.30;;;;;;5042358;28;20054;-28
2023/12/07 02:30:45;;;;;;;2.40;1.90;;;;;;;;;;5039299;28;20166;-26
2023/12/07 02:33:12;;;;;;;2.50;2.08;;;;;;;;;;5031349;28;20050;-28
2023/12/07 02:35:40;;;;;;;2.22;1.95;;;19.00;65.10;;;;;;5031302;28;20046;-25
2023/12/07 02:38:07;;;;;;;2.47;2.00;;;18.90;63.90;;;;;;5049749;28;20041;-25
2023/12/07 02:40:34;;;;;;;3.03;2.03;;;19.10;65.20;;;;;;5051046;28;20090;-30
2023/12/07 02:43:01;;;;;;;2.83;2.10;;;18.50;50.20;;;;;;5051019;28;20053;-30
2023/12/07 02:45:29;;;;;;;2.47;2.13;;;18.40;64.80;;;;;;5051300;28;20505;-29
2023/12/07 02:47:56;;;;;;;2.60;2.03;;;19.90;65.80;;;;;;5051390;28;20052;-30
2023/12/07 02:50:23;;;;;;;2.58;1.90;;;18.90;61.50;;;;;;5050896;28;20103;-29
2023/12/07 02:52:50;;;;;;;2.75;1.80;;;19.60;65.40;;;;;;5051230;28;20053;-29
2023/12/07 02:55:17;;;;;;;2.17;1.70;;;;;;;;;;5051257;28;20468;-29
2023/12/07 02:57:44;;;;;;;1.90;1.65;;;19.40;65.30;;;;;;5051091;28;20457;-31
2023/12/07 03:00:13;;;;;;;2.40;1.90;;;19.50;44.30;;;;;;5050908;28;20084;-29
2023/12/07 03:02:41;;;;;;;2.65;1.92;;;19.10;65.50;;;;;;5051071;28;20490;-28
2023/12/07 03:05:08;;;;;;;2.25;1.70;;;19.60;44.40;;;;;;5051151;28;20072;-31
2023/12/07 03:07:35;;;;;;;2.17;1.85;;;;;;;;;;5051125;28;20621;-27
2023/12/07 03:10:02;;;;;;;2.38;1.70;;;19.60;65.70;;;;;;5050833;28;20049;-31
2023/12/07 03:12:29;;;;;;;2.10;1.77;;;20.20;47.50;;;;;;5051326;28;20195;-28
2023/12/07 03:14:56;;;;;;;2.30;1.90;;;20.10;44.80;;;;;;5051593;28;20102;-28
2023/12/07 03:17:23;;;;;;;2.42;1.90;;;;;;;;;;5054697;28;20049;-28
2023/12/07 03:19:51;;;;;;;2.78;1.90;;;18.80;64.90;;;;;;5054570;28;20103;-30
2023/12/07 03:22:18;;;;;;;2.28;1.80;;;20.00;65.60;;;;;;5054554;28;20053;-33
2023/12/07 03:24:47;;;;;;;1.92;1.70;;;19.30;65.20;;;;;;5053857;28;20115;-34
2023/12/07 03:27:14;;;;;;;2.63;1.92;;;19.80;47.50;;;;;;5034818;28;20072;-30
2023/12/07 03:29:40;;;;;;;2.08;1.67;;;19.90;65.40;;;;;;5034316;28;20099;-33
2023/12/07 03:32:08;;;;;;;2.63;1.70;;;19.70;58.40;;;;;;5034526;28;20057;-36
2023/12/07 03:34:34;;;;;;;2.08;1.85;;;20.50;65.80;;;;;;5034145;28;20060;-32
2023/12/07 03:37:03;;;;;;;2.28;1.90;;;19.10;65.50;;;;;;5043489;28;20071;-31
2023/12/07 03:39:32;;;;;;;2.05;1.77;;;19.40;65.60;;;;;;5054075;28;20528;-31
2023/12/07 03:41:59;;;;;;;2.17;1.85;;;;;;;;;;5054027;28;20053;-29
2023/12/07 03:44:26;;;;;;;2.75;1.90;;;;;;;;;;5054307;28;20076;-28
2023/12/07 03:46:53;;;;;;;2.03;1.83;;;18.50;64.80;;;;;;5054124;28;20115;-34
2023/12/07 03:49:20;;;;;;;2.20;1.75;;;;;;;;;;5053966;28;20087;-28
2023/12/07 03:51:47;;;;;;;2.10;1.60;;;19.70;65.70;;;;;;5053985;28;20053;-28
2023/12/07 03:54:15;;;;;;;2.03;1.70;;;19.90;65.80;;;;;;5054399;28;20111;-30
2023/12/07 03:56:42;;;;;;;2.95;1.80;;;;;;;;;;5035956;28;20057;-29
2023/12/07 03:59:09;;;;;;;1.85;1.60;;;20.00;50.30;;;;;;5053652;28;20098;-30
2023/12/07 04:01:36;;;;;;;2.17;1.83;;;19.50;65.20;;;;;;5053801;28;20058;-26
2023/12/07 04:04:04;;;;;;;2.50;1.70;;;19.80;61.30;;;;;;5053849;28;20114;-27
2023/12/07 04:06:31;;;;;;;2.30;1.70;;;19.10;59.00;;;;;;5053863;28;20049;-27
2023/12/07 04:08:58;;;;;;;2.35;1.73;;;;;;;;;;5053509;28;20073;-26
2023/12/07 04:11:26;;;;;;;2.92;1.73;;;19.60;44.20;;;;;;5053966;28;20094;-26
2023/12/07 04:13:53;;;;;;;1.70;1.50;;;20.30;60.70;;;;;;5053360;28;20514;-26
2023/12/07 04:16:20;;;;;;;2.67;1.70;;;19.20;65.30;;;;;;5053544;28;20559;-25
2023/12/07 04:18:47;;;;;;;2.17;1.85;;;;;;;;;;5053215;28;20056;-31
2023/12/07 04:21:14;;;;;;;1.92;1.65;;;19.50;65.40;;;;;;5050736;28;20049;-25
2023/12/07 04:23:42;;;;;;;2.17;1.75;;;;;;;;;;5033703;28;20053;-32
2023/12/07 04:26:08;;;;;;;2.22;1.70;;;19.40;65.40;;;;;;5033470;28;20049;-31
2023/12/07 04:28:37;;;;;;;2.55;1.50;;;19.60;44.20;;;;;;5033258;28;20060;-29
2023/12/07 04:31:04;;;;;;;1.85;1.58;;;19.80;51.00;;;;;;5033416;28;20095;-29
2023/12/07 04:33:31;;;;;;;1.70;1.60;;;19.80;65.40;;;;;;5033175;28;20049;-32
2023/12/07 04:35:58;;;;;;;2.08;1.63;;;;;;;;;;5033908;28;20111;-31
2023/12/07 04:38:25;;;;;;;2.15;1.50;;;18.60;64.60;;;;;;5053081;28;20041;-31
2023/12/07 04:40:53;;;;;;;2.13;1.65;;;;;;;;;;5053050;28;20099;-31
2023/12/07 04:43:20;;;;;;;2.05;1.60;;;;;;;;;;5053208;28;20052;-32
2023/12/07 04:45:48;;;;;;;2.20;1.80;;;18.70;64.50;;;;;;5053027;28;20107;-31
2023/12/07 04:48:15;;;;;;;1.90;1.55;;;20.30;65.90;;;;;;5052790;28;20130;-32
2023/12/07 04:50:42;;;;;;;2.03;1.50;;;;;;;;;;5052856;28;20052;-31
2023/12/07 04:53:09;;;;;;;2.25;1.77;;;19.30;62.50;;;;;;5053099;28;20057;-32
2023/12/07 04:55:36;;;;;;;2.10;1.60;;;;;;;;;;5053023;28;20044;-29
2023/12/07 04:58:03;;;;;;;2.05;1.60;;;19.50;65.40;;;;;;5052870;28;20107;-33
2023/12/07 05:00:30;;;;;;;2.08;1.65;;;20.80;51.50;;;;;;5052372;28;20110;-33
2023/12/07 05:02:58;;;;;;;1.58;1.40;;;20.00;61.90;;;;;;5052513;28;20044;-31
2023/12/07 05:05:25;;;;;;;2.00;1.60;;;19.90;65.50;;;;;;5052850;28;20049;-26
2023/12/07 05:07:52;;;;;;;1.60;1.50;;;19.60;48.60;;;;;;5052751;28;20098;-25
2023/12/07 05:10:19;;;;;;;2.13;1.65;;;19.70;45.10;;;;;;5052222;28;20053;-28
2023/12/07 05:12:46;;;;;;;3.10;1.63;;;;;;;;;;5052516;28;20052;-26
2023/12/07 05:15:13;;;;;;;2.20;1.80;;;;;;;;;;5052477;28;20048;-27
2023/12/07 05:17:40;;;;;;;2.53;1.80;;;20.00;65.30;;;;;;5048255;28;20053;-25
2023/12/07 05:20:09;;;;;;;3.25;1.52;;;19.70;44.10;;;;;;5043374;28;20109;-30
2023/12/07 05:22:36;;;;;;;2.17;1.67;;;19.30;65.30;;;;;;5052384;28;20041;-26
2023/12/07 05:25:05;;;;;;;1.90;1.50;;;20.10;65.70;;;;;;5051942;28;20107;-26
2023/12/07 05:27:32;;;;;;;2.25;1.75;;;19.50;65.30;;;;;;5049312;28;20096;-26
2023/12/07 05:29:59;;;;;;;2.03;1.52;;;;;;;;;;5031920;28;20814;-29
2023/12/07 05:32:26;;;;;;;1.80;1.50;;;19.40;65.20;;;;;;5032478;28;20071;-26
2023/12/07 05:34:53;;;;;;;2.20;1.73;;;20.40;65.80;;;;;;5032044;28;20045;-30
2023/12/07 05:37:21;;;;;;;2.25;1.85;;;19.50;49.30;;;;;;5043528;28;20572;-31
2023/12/07 05:39:48;;;;;;;2.17;1.60;;;19.20;62.30;;;;;;5051821;28;20102;-29
2023/12/07 05:42:15;;;;;;;2.38;1.83;;;19.40;65.10;;;;;;5051963;28;20045;-32
2023/12/07 05:44:42;;;;;;;2.65;2.03;;;19.40;65.20;;;;;;5052143;28;20053;-30
2023/12/07 05:47:09;;;;;;;2.08;1.80;;;19.50;65.40;;;;;;5051745;28;20564;-26
2023/12/07 05:49:36;;;;;;;2.25;1.70;;;;;;;;;;5051751;28;20045;-29
2023/12/07 05:52:03;;;;;;;2.10;1.90;;;19.50;65.10;;;;;;5051857;28;20068;-26
2023/12/07 05:54:31;;;;;;;1.95;1.75;;;19.50;53.20;;;;;;5051946;28;20084;-27
2023/12/07 05:56:58;;;;;;;1.90;1.70;;;18.70;58.90;;;;;;5051753;28;20041;-27
2023/12/07 05:59:25;;;;;;;2.03;1.70;;;19.60;65.40;;;;;;5051645;28;20103;-26
2023/12/07 06:01:53;;;;;;;1.95;1.65;;;19.70;44.10;;;;;;5051470;28;20040;-28
2023/12/07 06:04:20;;;;;;;1.90;1.70;;;19.50;65.00;;;;;;5051904;28;20056;-26
2023/12/07 06:06:47;;;;;;;2.30;1.80;;;20.20;58.50;;;;;;5051615;28;20053;-27
2023/12/07 06:09:14;;;;;;;2.35;1.60;;;20.10;59.20;;;;;;5051239;28;20045;-26
2023/12/07 06:11:42;;;;;;;2.38;1.77;;;19.90;62.90;;;;;;5051461;28;20139;-30
2023/12/07 06:14:09;;;;;;;1.90;1.65;;;;;;;;;;5045738;28;20041;-32
2023/12/07 06:16:36;;;;;;;1.92;1.60;;;20.20;65.70;;;;;;5031572;28;20049;-26
2023/12/07 06:19:04;;;;;;;1.80;1.52;;;;;;;;;;5031294;28;20046;-31
2023/12/07 06:21:31;;;;;;;2.10;1.60;;;19.60;47.20;;;;;;5031440;28;20084;-28
2023/12/07 06:23:58;;;;;;;2.47;1.80;;;20.90;65.70;;;;;;5031495;28;20049;-31
2023/12/07 06:26:26;;;;;;;3.17;1.70;;;19.40;49.40;;;;;;5032434;28;20406;-29
2023/12/07 06:28:54;;;;;;;2.45;1.65;;;20.40;65.80;;;;;;5041786;28;20080;-26
2023/12/07 06:31:21;;;;;;;2.05;1.75;;;19.90;65.50;;;;;;5051617;28;20115;-26
2023/12/07 06:33:48;;;;;;;2.35;1.95;;;20.20;53.20;;;;;;5051449;28;20049;-26
2023/12/07 06:36:19;;;;;;;2.05;1.80;;;19.70;44.10;;;;;;5050814;28;20513;-30
2023/12/07 06:38:46;;;;;;;2.00;1.70;;;20.30;65.30;;;;;;5051381;28;20087;-26
2023/12/07 06:41:13;;;;;;;1.88;1.67;;;18.60;64.90;;;;;;5051219;28;20540;-26
2023/12/07 06:43:40;;;;;;;2.25;1.70;;;;;;;;;;5051466;28;20056;-26
2023/12/07 06:46:08;;;;;;;1.90;1.70;;;20.90;65.80;;;;;;5051085;28;20057;-26
2023/12/07 06:48:35;;;;;;;2.13;1.88;;;;;;;;;;5051295;28;20048;-32
2023/12/07 06:51:02;;;;;;;2.03;1.73;;;19.40;65.30;;;;;;5054014;28;20103;-31
2023/12/07 06:53:31;;;;;;;3.00;2.10;;;18.60;64.50;;;;;;5055245;28;20111;-31
2023/12/07 06:55:58;;;;;;;2.05;1.85;;;20.30;45.10;;;;;;5055107;28;20480;-29
2023/12/07 06:58:25;;;;;;;2.65;1.98;;;19.70;65.30;;;;;;5055041;28;20449;-32
2023/12/07 07:00:52;;;;;;;2.83;1.90;;;;;;;;;;5054654;28;20563;-28
2023/12/07 07:03:20;;;;;;;2.53;1.90;;;18.80;64.90;;;;;;5054898;28;20437;-31
2023/12/07 07:05:47;;;;;;;2.00;1.80;;;;;;;;;;5054896;28;20056;-30
2023/12/07 07:08:14;;;;;;;2.10;1.90;;;19.70;44.40;;;;;;5054495;28;20064;-32
2023/12/07 07:10:41;;;;;;;2.22;1.92;;;19.70;65.10;;;;;;5045244;28;20458;-33
2023/12/07 07:13:08;;;;;;;2.33;2.00;;;;;;;;;;5043293;28;20533;-32
2023/12/07 07:15:35;;;;;;;2.28;1.90;;;19.60;65.40;;;;;;5039612;28;20046;-28
2023/12/07 07:18:02;;;;;;;2.60;2.03;;;18.80;64.70;;;;;;5034820;28;20450;-31
2023/12/07 07:20:30;;;;;;;2.80;2.13;;;20.10;65.60;;;;;;5034664;28;20480;-28
2023/12/07 07:22:57;;;;;;;2.75;2.05;;;19.80;65.00;;;;;;5034534;28;20045;-30
2023/12/07 07:25:24;;;;;;;2.90;2.13;;;20.50;65.40;;;;;;5051649;28;20049;-30
2023/12/07 07:27:52;;;;;;;2.30;1.90;;;20.00;51.30;;;;;;5048951;28;20121;-28
2023/12/07 07:30:19;;;;;;;2.67;2.00;;;;;;;;;;5034528;28;20056;-32
2023/12/07 07:32:46;;;;;;;2.67;2.20;;;19.70;65.20;;;;;;5042441;28;20099;-31
2023/12/07 07:35:13;;;;;;;2.78;1.90;;;19.50;64.80;;;;;;5045173;28;20106;-30
2023/12/07 07:37:42;;;;;;;6.50;2.20;;;18.70;64.70;;;;;;5025215;28;20446;-30
2023/12/07 07:40:11;;;;;;;3.90;2.28;;;19.80;44.00;;;;;;5054020;28;20064;-29
2023/12/07 07:42:39;;;;;;;2.63;2.15;;;;;;;;;;5042481;28;20037;-30
2023/12/07 07:45:07;;;;;;;2.35;1.98;;;20.20;65.40;;;;;;5044018;28;20144;-30
2023/12/07 07:47:34;;;;;;;2.50;2.20;;;19.90;65.30;;;;;;5026613;28;20053;-32
2023/12/07 07:50:05;;;;;;;3.05;2.25;;;;;;;;;;5041173;28;20106;-28
2023/12/07 07:52:32;;;;;;;3.17;2.40;;;20.10;50.10;;;;;;5034539;28;20045;-27
2023/12/07 07:55:01;;;;;;;2.55;2.22;;;19.90;44.00;;;;;;5034133;28;20085;-29
2023/12/07 07:57:28;;;;;;;2.53;2.30;;;19.50;54.20;;;;;;5034179;28;20049;-27
2023/12/07 07:59:55;;;;;;;3.17;2.50;;;20.30;65.40;;;;;;5034349;28;20053;-26
2023/12/07 08:02:22;;;;;;;3.38;2.10;;;20.00;65.20;;;;;;5052103;28;20052;-25
2023/12/07 08:04:49;;;;;;;2.65;2.38;;;19.40;64.80;;;;;;5054097;28;20094;-33
2023/12/07 08:07:15;;;;;;;4.25;2.30;;;19.90;65.20;;;;;;5043014;28;20123;-32
2023/12/07 08:09:42;;;;;;;2.75;2.40;;;20.90;58.60;;;;;;5033711;28;20080;-30
2023/12/07 08:12:10;;;;;;;2.80;2.10;;;19.00;43.40;;;;;;5033664;28;20046;-28
2023/12/07 08:14:37;;;;;;;3.63;2.08;;;19.90;47.40;;;;;;5033662;28;20053;-31
2023/12/07 08:17:04;;;;;;;2.65;2.15;;;19.50;44.00;;;;;;5031637;28;20049;-27
2023/12/07 08:19:31;;;;;;;2.60;2.40;;;;;;;;;;5031623;28;20115;-27
2023/12/07 08:21:58;;;;;;;2.70;2.20;;;;;;;;;;5031864;28;20362;-28
2023/12/07 08:24:25;;;;;;;4.22;2.17;;;18.90;51.50;;;;;;5031553;28;20049;-26
2023/12/07 08:26:52;;;;;;;3.50;2.65;;;;;;;;;;5031696;28;20052;-29
2023/12/07 08:29:21;;;;;;;4.20;2.20;;;20.10;43.80;;;;;;5049251;28;20063;-27
2023/12/07 08:31:48;;;;;;;2.85;2.25;;;20.20;64.80;;;;;;5053327;28;20057;-26
2023/12/07 08:34:15;;;;;;;3.92;2.42;;;;;;;;;;5053293;28;20539;-29
2023/12/07 08:36:42;;;;;;;3.15;2.28;;;19.90;61.90;;;;;;5053202;28;20444;-32
2023/12/07 08:39:09;;;;;;;2.55;2.30;;;20.20;64.60;;;;;;5052930;28;20045;-25
2023/12/07 08:41:37;;;;;;;3.40;2.30;;;20.40;64.90;;;;;;5053182;28;20545;-25
2023/12/07 08:44:03;;;;;;;4.25;2.15;;;20.10;44.40;;;;;;5053227;28;20080;-29
2023/12/07 08:46:32;;;;;;;3.05;2.40;;;20.60;65.20;;;;;;5053003;28;20053;-31
2023/12/07 08:48:58;;;;;;;3.25;2.30;;;19.80;64.40;;;;;;5052981;28;20044;-29
2023/12/07 08:51:25;;;;;;;3.08;2.30;;;21.10;54.40;;;;;;5052718;28;20045;-30
2023/12/07 08:53:52;;;;;;;3.20;2.50;;;20.40;65.00;;;;;;5053112;28;20057;-32
2023/12/07 08:56:19;;;;;;;3.15;2.30;;;;;;;;;;5052991;28;20057;-28
2023/12/07 08:58:46;;;;;;;3.90;2.40;;;;;;;;;;5053108;28;20049;-25
2023/12/07 09:01:14;;;;;;;3.38;2.60;;;;;;;;;;5052418;28;20106;-29
2023/12/07 09:03:42;;;;;;;2.80;2.40;;;19.90;64.70;;;;;;5040591;28;20041;-25
2023/12/07 09:06:09;;;;;;;2.67;2.30;;;21.00;65.00;;;;;;5032831;28;20054;-25
2023/12/07 09:08:36;;;;;;;3.60;2.65;;;20.50;63.30;;;;;;5032984;28;20049;-26
2023/12/07 09:11:03;;;;;;;3.28;2.58;;;20.50;65.10;;;;;;5032597;28;20045;-29
2023/12/07 09:13:30;;;;;;;3.13;2.50;;;20.10;61.30;;;;;;5031808;28;20518;-28
2023/12/07 09:15:57;;;;;;;3.50;2.60;;;20.00;64.60;;;;;;5032814;28;20461;-29
2023/12/07 09:18:24;;;;;;;3.08;2.53;;;20.20;43.80;;;;;;5032505;28;20548;-26
2023/12/07 09:20:53;;;;;;;2.85;2.40;;;20.20;43.80;;;;;;5032264;28;20057;-26
2023/12/07 09:23:19;;;;;;;3.08;2.78;;;20.00;64.50;;;;;;5032280;28;20045;-31
2023/12/07 09:25:47;;;;;;;3.17;2.60;;;20.00;53.80;;;;;;5032806;28;20053;-29
2023/12/07 09:28:13;;;;;;;3.00;2.70;;;20.10;64.50;;;;;;5032263;28;20092;-26
2023/12/07 09:30:41;;;;;;;3.83;2.70;;;;;;;;;;5032343;28;20049;-30
2023/12/07 09:33:07;;;;;;;2.83;2.50;;;20.20;64.90;;;;;;5032346;28;20049;-32
2023/12/07 09:35:35;;;;;;;3.15;2.55;;;;;;;;;;5032161;28;20141;-28
2023/12/07 09:38:03;;;;;;;2.85;2.55;;;20.40;64.70;;;;;;5049848;28;20045;-27
2023/12/07 09:40:30;;;;;;;2.95;2.60;;;21.00;65.10;;;;;;5051902;28;20055;-26
2023/12/07 09:42:57;;;;;;;3.47;2.90;;;20.10;64.60;;;;;;5052233;28;20106;-26
2023/12/07 09:45:24;;;;;;;2.80;2.50;;;20.90;60.40;;;;;;5051689;28;20049;-31
2023/12/07 09:47:52;;;;;;;3.72;2.63;;;20.40;51.60;;;;;;5052171;28;20451;-32
2023/12/07 09:50:21;;;;;;;4.25;2.83;;;20.40;64.70;;;;;;5051586;28;20114;-32
2023/12/07 09:52:48;;;;;;;2.88;2.55;;;20.20;64.90;;;;;;5052266;28;20044;-32
2023/12/07 09:55:17;;;;;;;4.22;2.85;;;19.80;57.30;;;;;;5051864;28;20080;-27
2023/12/07 09:57:44;;;;;;;3.67;2.47;;;20.30;64.70;;;;;;5051920;28;20057;-27
2023/12/07 10:00:14;;;;;;;3.10;2.80;;;20.40;64.80;;;;;;5037444;28;20099;-32
2023/12/07 10:02:42;;;;;;;2.58;2.38;;;19.20;64.50;;;;;;5031430;28;20049;-31
2023/12/07 10:05:10;;;;;;;3.00;2.67;;;20.60;65.00;;;;;;5032267;28;20527;-32
2023/12/07 10:07:39;;;;;;;2.83;2.53;;;20.10;43.80;;;;;;5033819;28;20078;-29
2023/12/07 10:10:07;;;;;;;2.58;2.38;;;19.00;64.00;;;;;;5024150;28;20076;-32
2023/12/07 10:12:36;;;;;;;3.50;2.70;;;19.90;56.10;;;;;;5040385;28;20075;-29
2023/12/07 10:15:06;;;;;;;3.00;2.30;;;19.70;64.80;;;;;;5041068;28;20053;-29
2023/12/07 10:17:47;;;;;;;3.58;2.63;;;21.20;62.00;;;;;;5040032;28;20053;-29
2023/12/07 10:20:16;;;;;;;3.92;2.53;;;19.70;60.50;;;;;;5030738;28;20080;-26
2023/12/07 10:22:43;;;;;;;3.10;2.55;;;20.00;64.60;;;;;;5030350;28;20104;-27
2023/12/07 10:25:10;;;;;;;3.05;2.67;;;20.90;65.20;;;;;;5044831;28;20049;-26
2023/12/07 10:27:40;;;;;;;2.72;2.22;;;20.00;44.00;;;;;;5048474;28;20164;-26
2023/12/07 10:30:09;;;;;;;3.03;2.55;;;19.60;47.00;;;;;;5046965;28;20052;-27
2023/12/07 10:32:38;;;;;;;2.67;2.40;;;20.90;45.10;;;;;;5047391;28;20415;-27
2023/12/07 10:35:07;;;;;;;3.22;2.50;;;20.00;52.90;;;;;;5047265;28;20087;-26
2023/12/07 10:37:33;;;;;;;2.65;2.42;;;20.90;48.20;;;;;;5046113;28;20057;-30
2023/12/07 10:40:01;;;;;;;3.05;2.30;;;;;;;;;;5047314;28;20049;-30
2023/12/07 10:42:27;;;;;;;2.58;2.30;;;20.40;65.30;;;;;;5048677;28;20107;-29
2023/12/07 10:44:57;;;;;;;3.15;2.47;;;20.10;44.10;;;;;;5046978;28;20049;-29
2023/12/07 10:47:24;;;;;;;2.80;2.50;;;20.80;65.60;;;;;;5047241;28;20460;-27
2023/12/07 10:49:52;;;;;;;2.80;2.50;;;19.50;43.80;;;;;;5048349;28;20102;-27
2023/12/07 10:52:19;;;;;;;3.55;2.65;;;20.20;45.20;;;;;;5047500;28;20037;-27
2023/12/07 10:54:51;;;;;;;3.72;2.50;;;19.60;64.80;;;;;;5047017;28;20452;-26
2023/12/07 10:57:18;;;;;;;4.00;2.60;;;20.50;65.10;;;;;;5048278;28;20095;-27
2023/12/07 10:59:45;;;;;;;2.55;2.22;;;;;;;;;;5045862;28;20056;-27
2023/12/07 11:02:14;;;;;;;3.00;2.35;;;20.80;48.90;;;;;;5048542;28;20045;-27
2023/12/07 11:04:41;;;;;;;3.42;2.80;;;20.20;64.80;;;;;;5037266;28;20126;-26
2023/12/07 11:07:10;;;;;;;3.03;2.60;;;19.90;65.00;;;;;;5037174;28;20041;-32
2023/12/07 11:09:39;;;;;;;4.45;2.95;;;20.10;44.10;;;;;;5037185;28;20566;-29
2023/12/07 11:12:09;;;;;;;3.30;2.78;;;19.00;64.60;;;;;;5046985;28;20049;-26
2023/12/07 11:14:36;;;;;;;3.95;2.70;;;;;;;;;;5047023;28;20049;-27
2023/12/07 11:17:03;;;;;;;3.10;2.67;;;20.30;65.00;;;;;;5048054;28;20103;-30
2023/12/07 11:19:47;;;;;;;3.35;2.78;;;20.30;65.30;;;;;;5047250;28;20132;-30
2023/12/07 11:22:14;;;;;;;2.90;2.53;;;19.90;59.70;;;;;;5042721;28;20493;-27
2023/12/07 11:24:53;;;;;;;3.20;2.90;;;19.70;64.70;;;;;;5045582;28;20052;-29
2023/12/07 11:27:20;;;;;;;5.10;2.60;;;20.10;53.00;;;;;;5037183;28;20041;-26
2023/12/07 11:29:47;;;;;;;3.03;2.53;;;20.30;65.30;;;;;;5037077;28;20052;-26
2023/12/07 11:32:14;;;;;;;3.33;2.88;;;19.60;62.50;;;;;;5043067;28;20104;-32
2023/12/07 11:34:42;;;;;;;3.70;2.72;;;20.00;65.20;;;;;;5044952;28;20044;-33
2023/12/07 11:37:11;;;;;;;4.30;2.80;;;18.90;64.50;;;;;;5043320;28;20131;-31
2023/12/07 11:39:38;;;;;;;4.50;2.88;;;19.70;65.00;;;;;;5035629;28;20057;-30
2023/12/07 11:42:08;;;;;;;3.50;2.90;;;19.60;59.10;;;;;;5042447;28;20048;-29
2023/12/07 11:44:35;;;;;;;3.20;2.50;;;20.20;60.10;;;;;;5044820;28;20579;-32
2023/12/07 11:47:02;;;;;;;5.07;2.83;;;;;;;;;;5044586;28;20057;-27
2023/12/07 11:49:30;;;;;;;3.25;2.60;;;20.70;65.30;;;;;;5045973;28;20106;-26
2023/12/07 11:51:57;;;;;;;3.17;2.38;;;;;;;;;;5035286;28;20061;-30
2023/12/07 11:54:25;;;;;;;3.70;2.70;;;20.30;64.70;;;;;;5036837;28;20490;-25
2023/12/07 11:56:53;;;;;;;2.50;2.20;;;20.00;64.90;;;;;;5039411;28;20099;-26
2023/12/07 11:59:20;;;;;;;4.13;2.85;;;;;;;;;;5042293;28;20041;-26
2023/12/07 12:01:48;;;;;;;3.83;2.20;;;19.80;64.40;;;;;;5042834;28;20057;-27
2023/12/07 12:04:16;;;;;;;2.95;2.40;;;20.00;43.80;;;;;;5044722;28;20069;-29
2023/12/07 12:06:44;;;;;;;4.25;2.50;;;20.00;43.80;;;;;;5043460;28;20139;-26
2023/12/07 12:09:12;;;;;;;2.45;2.25;;;;;;;;;;5042336;28;20049;-30
2023/12/07 12:11:45;;;;;;;2.53;2.30;;;19.80;59.30;;;;;;5042596;28;20057;-26
2023/12/07 12:14:12;;;;;;;2.58;2.38;;;20.40;64.70;;;;;;5042419;28;20557;-26
2023/12/07 12:16:39;;;;;;;2.55;2.03;;;;;;;;;;5043795;28;20045;-30
2023/12/07 12:19:06;;;;;;;2.60;2.30;;;;;;;;;;5043732;28;20099;-25
2023/12/07 12:21:35;;;;;;;2.80;2.30;;;20.10;43.70;;;;;;5042060;28;20045;-27
2023/12/07 12:24:02;;;;;;;2.78;2.40;;;;;;;;;;5043602;28;20068;-28
2023/12/07 12:26:29;;;;;;;3.42;2.45;;;21.30;65.00;;;;;;5043860;28;20053;-25
2023/12/07 12:28:57;;;;;;;2.40;2.10;;;;;;;;;;5044189;28;20098;-30
2023/12/07 12:31:24;;;;;;;3.47;2.60;;;20.30;57.70;;;;;;5042926;28;20099;-26
2023/12/07 12:33:51;;;;;;;2.80;2.40;;;20.60;64.80;;;;;;5040564;28;20042;-28
2023/12/07 12:36:21;;;;;;;4.43;2.33;;;21.10;51.30;;;;;;5040901;28;20099;-27
2023/12/07 12:38:48;;;;;;;2.53;2.15;;;;;;;;;;5043290;28;20056;-27
2023/12/07 12:41:19;;;;;;;2.88;2.50;;;20.20;64.50;;;;;;5041376;28;20132;-26
2023/12/07 12:43:46;;;;;;;2.63;2.42;;;20.10;64.20;;;;;;5042775;28;20098;-26
2023/12/07 12:46:14;;;;;;;2.80;2.25;;;20.40;56.50;;;;;;5044120;28;20057;-26
2023/12/07 12:48:55;;;;;;;2.85;2.55;;;20.00;64.40;;;;;;5039246;28;20055;-26
2023/12/07 12:51:22;;;;;;;2.85;2.55;;;;;;;;;;5043183;28;20096;-25
2023/12/07 12:53:49;;;;;;;3.38;2.60;;;20.00;63.80;;;;;;5042249;28;20045;-26
2023/12/07 12:56:16;;;;;;;2.90;2.60;;;20.30;64.20;;;;;;5043841;28;20044;-26
2023/12/07 12:58:43;;;;;;;3.03;2.67;;;;;;;;;;5042548;28;20053;-29
2023/12/07 13:01:10;;;;;;;2.95;2.53;;;20.40;64.20;;;;;;5041373;28;20145;-31
2023/12/07 13:03:38;;;;;;;3.33;2.60;;;20.80;55.30;;;;;;5043507;28;20041;-29
2023/12/07 13:06:06;;;;;;;3.42;3.00;;;19.30;60.80;;;;;;5042280;28;20049;-29
2023/12/07 13:08:33;;;;;;;3.38;2.85;;;;;;;;;;5041669;28;20127;-30